This is the latest recevied weather packets stored in our database for station/object DH0DM-13. If no packets are shown the sender has not sent any weather packets the latest 10 day(s).
| Time | Temp. | Humidity | Pressure | Rain* | Wind** | Luminosity | Snow |
|---|---|---|---|---|---|---|---|
| 1777649111 | 23.33° C | 29% | 999.5 hPa | 0 mm | 1.79 m/s, 349° | - | - |
| 1777648510 | 22.22° C | 27% | 999.8 hPa | 0 mm | 1.79 m/s, 74° | - | - |
| 1777647910 | 23.33° C | 27% | 999.7 hPa | 0 mm | 0.89 m/s, 334° | - | - |
| 1777647309 | 22.78° C | 28% | 999.9 hPa | 0 mm | 1.79 m/s, 334° | - | - |
| 1777646708 | 23.33° C | 28% | 999.9 hPa | 0 mm | 0.45 m/s, 355° | - | - |
| 1777646107 | 22.22° C | 27% | 1000.1 hPa | 0 mm | 0.89 m/s, 118° | - | - |
| 1777645506 | 23.33° C | 29% | 1000.1 hPa | 0 mm | 1.34 m/s, 344° | - | - |
| 1777644905 | 22.78° C | 28% | 1000.1 hPa | 0 mm | 1.34 m/s, 332° | - | - |
| 1777644304 | 23.33° C | 29% | 1000.3 hPa | 0 mm | 4.92 m/s, 329° | - | - |
| 1777643703 | 22.78° C | 30% | 1000.4 hPa | 0 mm | 2.68 m/s, 318° | - | - |
| 1777643102 | 22.78° C | 29% | 1000.4 hPa | 0 mm | 2.24 m/s, 211° | - | - |
| 1777642502 | 22.78° C | 29% | 1000.4 hPa | 0 mm | 0 m/s | - | - |
| 1777641901 | 22.78° C | 29% | 1000.4 hPa | 0 mm | 2.24 m/s, 345° | - | - |
| 1777641300 | 22.22° C | 28% | 1000.8 hPa | 0 mm | 2.68 m/s, 282° | - | - |
| 1777640699 | 22.22° C | 30% | 1001 hPa | 0 mm | 2.68 m/s, 9° | - | - |
| 1777640098 | 21.67° C | 31% | 1001 hPa | 0 mm | 5.36 m/s, 69° | - | - |
| 1777639497 | 21.67° C | 32% | 1001.1 hPa | 0 mm | 2.68 m/s, 128° | - | - |
| 1777638896 | 21.11° C | 33% | 1001.1 hPa | 0 mm | 1.79 m/s, 211° | - | - |
| 1777638296 | 21.67° C | 31% | 1001.7 hPa | 0 mm | 1.79 m/s, 30° | - | - |
| 1777637695 | 21.67° C | 33% | 1001.3 hPa | 0 mm | 4.92 m/s, 306° | - | - |
| 1777637094 | 21.11° C | 34% | 1001.4 hPa | 0 mm | 4.92 m/s, 215° | - | - |
| 1777636493 | 21.11° C | 32% | 1001.5 hPa | 0 mm | 3.58 m/s, 315° | - | - |
| 1777635892 | 21.11° C | 32% | 1001.8 hPa | 0 mm | 1.34 m/s, 275° | - | - |
| 1777635291 | 20.56° C | 38% | 1001.7 hPa | 0 mm | 0 m/s | - | - |
| 1777634690 | 20° C | 36% | 1001.8 hPa | 0 mm | 1.34 m/s, 249° | - | - |
* Rain since midnight (hover to see other rain measurements)
** Current wind speed in m/s (hover to see current wind gust speed)